Time;durP1;ratioP1;P1;durP2;ratioP2;P2;SDS_P1;SDS_P2;PMS_P1;PMS_P2;Temp;Humidity;BMP_temperature;BMP_pressure;BME280_temperature;BME280_humidity;BME280_pressure;Samples;Min_cycle;Max_cycle;Signal;HPM_P1;HPM_P2
2021/12/18 00:00:39;;;;;;;55.10;28.50;;;;;;;;;;5041938;28;20036;-61
2021/12/18 00:03:05;;;;;;;63.17;27.23;;;;;;;;;;5041326;28;20531;-61
2021/12/18 00:05:30;;;;;;;59.72;28.25;;;;;;;;;;5039075;28;20120;-61
2021/12/18 00:07:55;;;;;;;53.63;25.08;;;;;;;;;;5042040;28;20031;-61
2021/12/18 00:10:23;;;;;;;55.17;28.17;;;;;;;;;;5040172;28;20091;-61
2021/12/18 00:12:49;;;;;;;54.28;26.80;;;;;;;;;;5042604;28;20841;-61
2021/12/18 00:15:15;;;;;;;55.22;25.45;;;;;;;;;;5039425;28;20025;-61
2021/12/18 00:17:40;;;;;;;55.17;26.80;;;;;;;;;;5043410;28;20021;-61
2021/12/18 00:20:05;;;;;;;72.00;34.33;;;;;;;;;;5041804;28;20108;-61
2021/12/18 00:22:30;;;;;;;57.88;30.45;;;;;;;;;;5038185;28;20491;-61
2021/12/18 00:24:55;;;;;;;49.43;24.97;;;;;;;;;;5042330;28;20111;-61
2021/12/18 00:27:21;;;;;;;50.33;25.07;;;;;;;;;;5042008;28;20768;-61
2021/12/18 00:29:46;;;;;;;52.87;26.33;;;;;;;;;;5040095;28;20036;-61
2021/12/18 00:32:11;;;;;;;62.80;27.83;;;;;;;;;;5041147;28;20530;-61
2021/12/18 00:34:39;;;;;;;57.13;26.15;;;;;;;;;;5041177;28;20040;-61
2021/12/18 00:37:04;;;;;;;57.30;26.48;;;;;;;;;;5042787;28;20087;-61
2021/12/18 00:39:32;;;;;;;64.07;36.28;;;;;;;;;;5041647;28;20057;-60
2021/12/18 00:44:22;;;;;;;63.80;27.90;;;;;;;;;;5040024;28;20033;-61
2021/12/18 00:46:47;;;;;;;55.80;27.90;;;;;;;;;;5042933;28;20453;-61
2021/12/18 00:49:14;;;;;;;60.93;28.67;;;;;;;;;;5037567;28;20038;-61
2021/12/18 00:51:39;;;;;;;62.05;28.15;;;;;;;;;;5022229;28;20468;-61
2021/12/18 00:54:05;;;;;;;54.77;25.60;;;;;;;;;;5021234;28;20421;-61
2021/12/18 00:56:30;;;;;;;59.22;29.85;;;;;;;;;;5021270;28;20543;-61
2021/12/18 00:58:55;;;;;;;56.43;27.33;;;;;;;;;;5019746;28;20382;-61
2021/12/18 01:01:22;;;;;;;53.45;27.45;;;;;;;;;;5020397;28;20104;-61
2021/12/18 01:03:48;;;;;;;61.38;29.92;;;;;;;;;;5022774;28;20038;-61
2021/12/18 01:06:14;;;;;;;54.95;27.35;;;;;;;;;;5019415;28;20434;-61
2021/12/18 01:08:39;;;;;;;70.68;33.55;;;;;;;;;;5023072;28;20056;-62
2021/12/18 01:13:33;;;;;;;61.77;27.23;;;;;;;;;;5022331;28;20444;-61
2021/12/18 01:16:07;;;;;;;60.90;25.98;;;;;;;;;;5020757;28;20037;-61
2021/12/18 01:24:00;;;;;;;55.65;24.23;;;;;;;;;;5019999;28;20037;-61
2021/12/18 01:26:25;;;;;;;61.28;24.27;;;;;;;;;;5021770;28;20025;-60
2021/12/18 01:28:51;;;;;;;51.67;22.57;;;;;;;;;;5020133;28;20462;-60
2021/12/18 01:31:16;;;;;;;63.70;23.55;;;;;;;;;;5018824;28;20479;-60
2021/12/18 01:33:41;;;;;;;57.70;23.13;;;;;;;;;;5022036;28;20013;-60
2021/12/18 01:36:06;;;;;;;51.13;20.67;;;;;;;;;;5020095;28;20116;-60
2021/12/18 01:38:32;;;;;;;51.80;24.40;;;;;;;;;;5022509;28;20010;-60
2021/12/18 01:40:57;;;;;;;55.78;22.33;;;;;;;;;;5018190;28;20488;-60
2021/12/18 01:46:11;;;;;;;48.22;22.88;;;;;;;;;;5018687;28;20049;-60
2021/12/18 01:51:34;;;;;;;48.33;22.58;;;;;;;;;;5038615;28;20133;-61
2021/12/18 01:53:59;;;;;;;45.75;18.13;;;;;;;;;;5038553;28;20502;-60
2021/12/18 01:56:25;;;;;;;45.78;18.40;;;;;;;;;;5020961;28;20109;-61
2021/12/18 01:58:51;;;;;;;47.45;20.52;;;;;;;;;;5019512;28;20049;-60
2021/12/18 02:01:16;;;;;;;46.72;20.15;;;;;;;;;;5018853;28;20034;-61
2021/12/18 02:03:42;;;;;;;49.58;19.60;;;;;;;;;;5020629;28;20060;-61
2021/12/18 02:06:07;;;;;;;49.45;19.70;;;;;;;;;;5019802;28;20033;-60
2021/12/18 02:08:35;;;;;;;45.92;19.85;;;;;;;;;;5019899;28;20029;-60
2021/12/18 02:11:11;;;;;;;44.85;19.95;;;;;;;;;;5017117;28;20108;-61
2021/12/18 02:21:43;;;;;;;32.90;14.65;;;;;;;;;;5019542;28;20662;-63
2021/12/18 02:24:08;;;;;;;38.33;15.13;;;;;;;;;;5019440;28;20038;-63
2021/12/18 02:26:33;;;;;;;27.20;12.30;;;;;;;;;;5021202;28;20443;-63
2021/12/18 02:29:01;;;;;;;24.70;11.17;;;;;;;;;;5019163;28;20025;-63
2021/12/18 02:31:26;;;;;;;20.40;10.88;;;;;;;;;;5020994;28;20473;-63
2021/12/18 02:33:52;;;;;;;23.98;11.05;;;;;;;;;;5020206;28;20072;-60
2021/12/18 02:36:24;;;;;;;29.55;12.50;;;;;;;;;;5017937;28;20030;-61
2021/12/18 02:41:41;;;;;;;24.52;12.50;;;;;;;;;;5009932;28;20509;-59
2021/12/18 02:44:08;;;;;;;24.88;11.68;;;;;;;;;;5017309;28;20022;-59
2021/12/18 02:46:33;;;;;;;20.50;10.02;;;;;;;;;;5014619;28;20017;-60
2021/12/18 02:49:04;;;;;;;27.53;12.57;;;;;;;;;;5009966;28;20036;-60
2021/12/18 02:51:29;;;;;;;26.48;12.10;;;;;;;;;;5011556;28;20480;-60
2021/12/18 02:53:54;;;;;;;20.33;10.17;;;;;;;;;;5009959;28;20449;-61
2021/12/18 02:56:23;;;;;;;19.37;9.27;;;;;;;;;;5019285;28;20045;-62
2021/12/18 02:58:50;;;;;;;24.92;10.18;;;;;;;;;;5022373;28;20452;-61
2021/12/18 03:01:18;;;;;;;23.33;11.25;;;;;;;;;;5010930;28;20045;-62
2021/12/18 03:03:45;;;;;;;20.05;10.57;;;;;;;;;;5011201;28;20449;-62
2021/12/18 03:06:24;;;;;;;21.23;11.93;;;;;;;;;;5009285;28;20034;-62
2021/12/18 03:27:17;;;;;;;25.93;10.40;;;;;;;;;;5010889;28;20117;-59
2021/12/18 03:29:42;;;;;;;24.95;11.80;;;;;;;;;;5009687;28;20034;-60
2021/12/18 03:32:07;;;;;;;21.33;12.10;;;;;;;;;;5029255;28;20025;-59
2021/12/18 03:34:33;;;;;;;24.93;12.27;;;;;;;;;;5028616;28;20030;-61
2021/12/18 03:36:58;;;;;;;19.05;10.55;;;;;;;;;;5030643;28;20393;-60
2021/12/18 03:39:23;;;;;;;19.87;10.60;;;;;;;;;;5022834;28;20493;-60
2021/12/18 03:41:48;;;;;;;18.75;10.50;;;;;;;;;;5019917;28;20463;-60
2021/12/18 03:44:13;;;;;;;17.63;9.17;;;;;;;;;;5032500;28;20041;-61
2021/12/18 03:46:38;;;;;;;16.83;10.68;;;;;;;;;;5033953;28;20573;-59
2021/12/18 03:49:04;;;;;;;20.90;9.37;;;;;;;;;;5014572;28;20029;-60
2021/12/18 03:51:29;;;;;;;20.10;9.37;;;;;;;;;;5026761;28;20387;-59
2021/12/18 03:53:54;;;;;;;19.00;10.40;;;;;;;;;;5032671;28;20461;-58
2021/12/18 03:56:19;;;;;;;16.05;8.55;;;;;;;;;;5032825;28;20049;-60
2021/12/18 03:58:45;;;;;;;19.88;9.68;;;;;;;;;;5034079;28;20025;-60
2021/12/18 04:01:10;;;;;;;20.92;11.05;;;;;;;;;;5021969;28;20066;-60
2021/12/18 04:03:35;;;;;;;19.65;10.13;;;;;;;;;;5013472;28;20017;-60
2021/12/18 04:06:00;;;;;;;21.63;11.02;;;;;;;;;;5029379;28;20044;-61
2021/12/18 04:08:25;;;;;;;17.37;10.17;;;;;;;;;;5030919;28;20021;-61
2021/12/18 04:10:51;;;;;;;17.27;8.57;;;;;;;;;;5019061;28;20464;-61
2021/12/18 04:13:16;;;;;;;20.45;9.52;;;;;;;;;;5034135;28;20013;-61
2021/12/18 04:15:41;;;;;;;14.82;9.57;;;;;;;;;;5031988;28;20033;-61
2021/12/18 04:18:07;;;;;;;20.10;10.45;;;;;;;;;;5027056;28;20063;-61
2021/12/18 04:20:32;;;;;;;21.58;9.63;;;;;;;;;;5016214;28;20037;-61
2021/12/18 04:22:57;;;;;;;18.20;8.83;;;;;;;;;;5032350;28;20026;-61
2021/12/18 04:25:22;;;;;;;21.33;9.98;;;;;;;;;;5011884;28;20473;-61
2021/12/18 04:27:48;;;;;;;18.17;8.87;;;;;;;;;;5013387;28;20029;-61
2021/12/18 04:30:13;;;;;;;20.02;9.80;;;;;;;;;;5016104;28;20467;-61
2021/12/18 04:32:38;;;;;;;19.77;8.65;;;;;;;;;;5013409;28;20026;-61
2021/12/18 04:35:03;;;;;;;16.70;8.97;;;;;;;;;;5012000;28;20089;-61
2021/12/18 04:37:29;;;;;;;19.40;9.93;;;;;;;;;;5028864;28;20535;-61
2021/12/18 04:39:54;;;;;;;12.70;8.67;;;;;;;;;;5015019;28;20029;-61
2021/12/18 04:42:20;;;;;;;18.73;9.45;;;;;;;;;;5032177;28;20040;-61
2021/12/18 04:44:45;;;;;;;18.77;8.20;;;;;;;;;;5031928;28;20029;-60
2021/12/18 04:47:10;;;;;;;16.33;9.00;;;;;;;;;;5029399;28;20025;-60
2021/12/18 04:49:35;;;;;;;16.52;9.80;;;;;;;;;;5010584;28;20026;-60
2021/12/18 04:52:02;;;;;;;19.33;9.68;;;;;;;;;;5032716;28;20021;-59
2021/12/18 04:54:27;;;;;;;14.15;7.90;;;;;;;;;;5013812;28;20122;-59
2021/12/18 04:56:52;;;;;;;16.67;7.87;;;;;;;;;;5012647;28;20132;-59
2021/12/18 04:59:17;;;;;;;26.73;8.57;;;;;;;;;;5022378;28;20505;-59
2021/12/18 05:01:42;;;;;;;20.38;8.40;;;;;;;;;;5015602;28;20979;-59
2021/12/18 05:04:10;;;;;;;15.15;8.57;;;;;;;;;;5011365;28;20095;-59
2021/12/18 05:06:37;;;;;;;20.17;8.40;;;;;;;;;;5012751;28;20050;-59
2021/12/18 05:09:03;;;;;;;22.65;8.95;;;;;;;;;;5020573;28;20114;-59
2021/12/18 05:11:28;;;;;;;19.88;8.35;;;;;;;;;;5025360;28;20645;-62
2021/12/18 05:13:54;;;;;;;26.07;9.43;;;;;;;;;;5030698;28;20027;-60
2021/12/18 05:16:19;;;;;;;12.77;7.07;;;;;;;;;;5032684;28;20465;-60
2021/12/18 05:18:44;;;;;;;14.85;6.90;;;;;;;;;;5021966;28;20473;-61
2021/12/18 05:21:10;;;;;;;13.15;7.13;;;;;;;;;;5030321;28;20042;-60
2021/12/18 05:23:35;;;;;;;17.77;7.15;;;;;;;;;;5028908;28;20101;-60
2021/12/18 05:26:00;;;;;;;12.48;6.53;;;;;;;;;;5044968;28;20523;-60
2021/12/18 05:28:25;;;;;;;11.47;6.70;;;;;;;;;;5050481;28;20035;-60
2021/12/18 05:30:50;;;;;;;16.50;6.82;;;;;;;;;;5034088;28;20044;-60
2021/12/18 05:33:16;;;;;;;17.48;7.00;;;;;;;;;;5031988;28;20013;-60
2021/12/18 05:35:41;;;;;;;15.80;9.07;;;;;;;;;;5045304;28;20492;-60
2021/12/18 05:38:06;;;;;;;20.23;7.78;;;;;;;;;;5047988;28;20033;-60
2021/12/18 05:40:32;;;;;;;11.60;6.27;;;;;;;;;;5040228;28;20068;-60
2021/12/18 05:42:57;;;;;;;10.70;5.70;;;;;;;;;;5037891;28;20017;-60
2021/12/18 05:45:22;;;;;;;10.07;4.40;;;;;;;;;;5037059;28;20105;-60
2021/12/18 05:47:47;;;;;;;8.63;5.50;;;;;;;;;;5039756;28;20434;-59
2021/12/18 05:50:15;;;;;;;12.95;6.05;;;;;;;;;;5037687;28;20037;-60
2021/12/18 05:52:40;;;;;;;12.00;7.15;;;;;;;;;;5037133;28;20025;-60
2021/12/18 05:55:06;;;;;;;8.98;5.25;;;;;;;;;;5038151;28;20078;-60
2021/12/18 05:57:31;;;;;;;15.98;5.95;;;;;;;;;;5044548;28;20024;-60
2021/12/18 05:59:57;;;;;;;18.23;5.53;;;;;;;;;;5026460;28;20128;-60
2021/12/18 06:02:22;;;;;;;12.63;5.05;;;;;;;;;;5011017;28;20037;-60
2021/12/18 06:04:47;;;;;;;13.68;4.78;;;;;;;;;;5009906;28;20037;-60
2021/12/18 06:07:27;;;;;;;13.53;5.30;;;;;;;;;;5010761;28;20128;-60
2021/12/18 06:09:53;;;;;;;13.80;7.30;;;;;;;;;;5018417;28;20804;-60
2021/12/18 06:12:18;;;;;;;9.30;5.20;;;;;;;;;;5019390;28;20037;-60
2021/12/18 06:14:43;;;;;;;7.47;4.10;;;;;;;;;;5016917;28;20127;-59
2021/12/18 06:17:08;;;;;;;10.32;4.40;;;;;;;;;;5018955;28;20025;-60
2021/12/18 06:19:33;;;;;;;8.45;5.05;;;;;;;;;;5017531;28;20034;-59
2021/12/18 06:21:58;;;;;;;8.80;3.77;;;;;;;;;;5020690;28;20431;-60
2021/12/18 06:24:26;;;;;;;6.50;3.58;;;;;;;;;;5020143;28;20038;-60
2021/12/18 06:26:51;;;;;;;8.55;3.30;;;;;;;;;;5016494;28;20022;-59
2021/12/18 06:29:16;;;;;;;9.07;3.93;;;;;;;;;;5017549;28;20084;-59
2021/12/18 06:31:41;;;;;;;9.43;3.83;;;;;;;;;;5022713;28;20460;-59
2021/12/18 06:34:07;;;;;;;9.90;5.23;;;;;;;;;;5020098;28;20025;-59
2021/12/18 06:36:32;;;;;;;12.05;6.25;;;;;;;;;;5019222;28;20441;-59
2021/12/18 06:38:57;;;;;;;7.77;4.00;;;;;;;;;;5017461;28;20026;-58
2021/12/18 06:41:22;;;;;;;10.10;4.43;;;;;;;;;;5019565;28;20451;-59
2021/12/18 06:43:47;;;;;;;8.25;4.80;;;;;;;;;;5019591;28;20108;-59
2021/12/18 06:46:13;;;;;;;7.57;4.23;;;;;;;;;;5016962;28;20076;-59
2021/12/18 06:48:38;;;;;;;11.50;6.97;;;;;;;;;;5018760;28;20389;-59
2021/12/18 06:51:03;;;;;;;8.07;4.00;;;;;;;;;;5015979;28;20472;-59
2021/12/18 06:53:28;;;;;;;7.23;4.73;;;;;;;;;;5018484;28;20484;-59
2021/12/18 06:55:53;;;;;;;10.70;3.47;;;;;;;;;;5017176;28;20472;-59
2021/12/18 06:58:19;;;;;;;13.40;4.30;;;;;;;;;;5012185;28;20032;-59
2021/12/18 07:00:44;;;;;;;4.80;3.25;;;;;;;;;;5024587;28;20076;-59
2021/12/18 07:03:09;;;;;;;7.45;4.57;;;;;;;;;;5010244;28;20022;-60
2021/12/18 07:05:34;;;;;;;10.63;4.70;;;;;;;;;;5008167;28;20125;-60
2021/12/18 07:07:59;;;;;;;6.03;4.10;;;;;;;;;;5010778;28;20038;-59
2021/12/18 07:10:24;;;;;;;10.63;4.10;;;;;;;;;;5021119;28;20828;-59
2021/12/18 07:12:50;;;;;;;6.63;4.80;;;;;;;;;;5023671;28;20018;-59
2021/12/18 07:15:15;;;;;;;7.13;4.93;;;;;;;;;;5030302;28;20448;-59
2021/12/18 07:17:40;;;;;;;8.75;5.55;;;;;;;;;;5019667;28;20489;-59
2021/12/18 07:20:06;;;;;;;9.00;6.10;;;;;;;;;;5017990;28;20428;-59
2021/12/18 07:22:32;;;;;;;11.88;6.00;;;;;;;;;;5019067;28;20018;-58
2021/12/18 07:24:57;;;;;;;12.30;6.72;;;;;;;;;;5024726;28;20083;-57
2021/12/18 07:27:22;;;;;;;12.77;6.75;;;;;;;;;;5030430;28;20408;-58
2021/12/18 07:29:47;;;;;;;12.70;5.97;;;;;;;;;;5030512;28;20046;-57
2021/12/18 07:32:12;;;;;;;8.63;5.05;;;;;;;;;;5033761;28;20510;-57
2021/12/18 07:34:37;;;;;;;7.13;5.20;;;;;;;;;;5030600;28;20037;-57
2021/12/18 07:37:03;;;;;;;12.77;7.20;;;;;;;;;;5016059;28;20017;-57
2021/12/18 07:39:28;;;;;;;10.60;5.85;;;;;;;;;;5016499;28;20111;-57
2021/12/18 07:41:53;;;;;;;7.93;4.90;;;;;;;;;;5021913;28;20436;-57
2021/12/18 07:44:18;;;;;;;6.22;4.93;;;;;;;;;;5015909;28;20045;-57
2021/12/18 07:46:43;;;;;;;7.53;5.90;;;;;;;;;;5018129;28;20040;-56
2021/12/18 07:49:08;;;;;;;14.25;5.93;;;;;;;;;;5013609;28;20048;-57
2021/12/18 07:51:34;;;;;;;12.93;5.90;;;;;;;;;;5019321;28;20021;-57
2021/12/18 07:53:59;;;;;;;12.70;5.28;;;;;;;;;;5013021;28;20437;-57
2021/12/18 07:56:25;;;;;;;14.25;7.45;;;;;;;;;;5026472;28;20152;-57
2021/12/18 07:58:50;;;;;;;11.07;5.97;;;;;;;;;;5027360;28;20491;-57
2021/12/18 08:01:15;;;;;;;10.70;5.78;;;;;;;;;;5017337;28;20401;-57
2021/12/18 08:03:42;;;;;;;10.80;5.13;;;;;;;;;;5026645;28;20053;-57
2021/12/18 08:06:07;;;;;;;9.13;5.25;;;;;;;;;;5018775;28;20042;-57
2021/12/18 08:08:32;;;;;;;12.37;5.00;;;;;;;;;;5032535;28;20068;-59
2021/12/18 08:10:57;;;;;;;13.25;5.57;;;;;;;;;;5029851;28;20475;-57
2021/12/18 08:13:22;;;;;;;12.07;5.40;;;;;;;;;;5022204;28;20037;-57
2021/12/18 08:15:48;;;;;;;14.98;5.45;;;;;;;;;;5019555;28;20456;-56
2021/12/18 08:18:13;;;;;;;8.93;4.30;;;;;;;;;;5015376;28;20073;-56
2021/12/18 08:20:38;;;;;;;14.02;5.20;;;;;;;;;;5011392;28;20108;-56
2021/12/18 08:23:04;;;;;;;8.80;4.78;;;;;;;;;;5015144;28;20029;-56
2021/12/18 08:25:30;;;;;;;8.43;4.82;;;;;;;;;;5012531;28;20096;-56
2021/12/18 08:27:56;;;;;;;7.78;4.05;;;;;;;;;;5027905;28;20013;-57
2021/12/18 08:30:22;;;;;;;7.40;4.35;;;;;;;;;;5020010;28;20040;-56
2021/12/18 08:32:47;;;;;;;9.32;3.90;;;;;;;;;;5019929;28;20030;-56
2021/12/18 08:35:12;;;;;;;6.28;4.25;;;;;;;;;;5025188;28;20640;-56
2021/12/18 08:37:44;;;;;;;11.77;5.73;;;;;;;;;;5013562;28;20468;-59
2021/12/18 08:40:09;;;;;;;9.52;4.90;;;;;;;;;;5018860;28;20041;-59
2021/12/18 08:42:34;;;;;;;7.03;4.60;;;;;;;;;;5021872;28;20036;-58
2021/12/18 08:45:21;;;;;;;11.57;5.47;;;;;;;;;;5018048;28;20049;-59
2021/12/18 08:48:04;;;;;;;12.32;5.57;;;;;;;;;;5027924;28;20439;-59
2021/12/18 08:50:44;;;;;;;10.07;5.93;;;;;;;;;;5011509;28;20037;-58
2021/12/18 08:53:09;;;;;;;10.35;4.63;;;;;;;;;;5023000;28;20427;-58
2021/12/18 08:55:35;;;;;;;10.00;6.03;;;;;;;;;;5027803;28;20045;-59
2021/12/18 08:58:13;;;;;;;6.88;4.95;;;;;;;;;;5038718;28;20470;-58
2021/12/18 09:00:40;;;;;;;9.02;5.55;;;;;;;;;;5020642;28;20383;-59
2021/12/18 09:03:05;;;;;;;14.18;6.60;;;;;;;;;;5010510;28;20056;-58
2021/12/18 09:05:30;;;;;;;4.47;4.07;;;;;;;;;;5012419;28;20065;-58
2021/12/18 09:07:56;;;;;;;9.95;6.18;;;;;;;;;;5019797;28;20452;-58
2021/12/18 09:10:23;;;;;;;9.15;4.72;;;;;;;;;;5014012;28;20037;-59
2021/12/18 09:12:48;;;;;;;9.63;5.20;;;;;;;;;;5029197;28;20021;-58
2021/12/18 09:15:14;;;;;;;8.68;4.85;;;;;;;;;;5040314;28;20124;-58
2021/12/18 09:17:39;;;;;;;9.02;5.10;;;;;;;;;;5046949;28;20071;-58
2021/12/18 09:20:04;;;;;;;6.67;4.47;;;;;;;;;;5033426;28;20032;-58
2021/12/18 09:22:30;;;;;;;4.38;3.97;;;;;;;;;;5049801;28;20448;-58
2021/12/18 09:24:55;;;;;;;4.00;3.60;;;;;;;;;;5041091;28;20393;-58
2021/12/18 09:27:22;;;;;;;5.50;5.07;;;;;;;;;;5030776;28;20515;-58
2021/12/18 09:29:47;;;;;;;4.88;3.35;;;;;;;;;;5029026;28;20521;-58
2021/12/18 09:32:12;;;;;;;3.00;2.78;;;;;;;;;;5031890;28;20037;-58
2021/12/18 09:34:37;;;;;;;4.30;3.90;;;;;;;;;;5034667;28;20486;-58
2021/12/18 09:37:03;;;;;;;4.30;3.15;;;;;;;;;;5050882;28;20031;-58
2021/12/18 09:39:28;;;;;;;4.72;3.03;;;;;;;;;;5049707;28;20029;-58
2021/12/18 09:41:53;;;;;;;4.60;3.58;;;;;;;;;;5032947;28;20033;-58
2021/12/18 09:44:22;;;;;;;3.20;2.70;;;;;;;;;;5029525;28;20092;-58
2021/12/18 09:46:47;;;;;;;;;;;;;;;;;;5032701;28;20024;-56
2021/12/18 09:49:13;;;;;;;3.65;3.13;;;;;;;;;;5035200;28;19988;-58
2021/12/18 09:51:38;;;;;;;4.50;4.10;;;;;;;;;;5031156;28;20412;-58
2021/12/18 09:54:03;;;;;;;3.07;2.80;;;;;;;;;;5049386;28;20024;-58
2021/12/18 09:56:28;;;;;;;4.90;3.53;;;;;;;;;;5029992;28;20479;-58
2021/12/18 09:58:53;;;;;;;3.53;2.30;;;;;;;;;;5031170;28;20013;-58
2021/12/18 10:01:19;;;;;;;3.38;2.97;;;;;;;;;;5028582;28;20455;-58
2021/12/18 10:03:49;;;;;;;4.78;3.58;;;;;;;;;;5040437;28;20025;-58
2021/12/18 10:06:28;;;;;;;3.08;2.88;;;;;;;;;;5048044;28;20060;-58
2021/12/18 10:08:53;;;;;;;4.47;2.75;;;;;;;;;;5030352;28;20039;-58
2021/12/18 10:11:18;;;;;;;3.63;3.13;;;;;;;;;;5043823;28;20045;-58
2021/12/18 10:13:50;;;;;;;4.60;4.20;;;;;;;;;;5049738;28;20017;-58
2021/12/18 10:16:16;;;;;;;6.90;4.93;;;;;;;;;;5048750;28;20116;-58
2021/12/18 10:18:41;;;;;;;4.35;2.67;;;;;;;;;;5030290;28;20108;-58
2021/12/18 10:21:08;;;;;;;40.28;36.38;;;;;;;;;;5028743;28;20040;-58
2021/12/18 10:23:33;;;;;;;43.20;39.35;;;;;;;;;;5030839;28;20437;-58
2021/12/18 10:25:58;;;;;;;30.13;27.17;;;;;;;;;;5028257;28;20117;-58
2021/12/18 10:28:24;;;;;;;6.87;6.30;;;;;;;;;;5030338;28;20470;-59
2021/12/18 10:30:53;;;;;;;4.28;3.88;;;;;;;;;;5042719;28;20847;-58
2021/12/18 10:33:19;;;;;;;5.53;3.40;;;;;;;;;;5049692;28;20637;-58
2021/12/18 10:35:54;;;;;;;4.82;4.20;;;;;;;;;;5038639;28;20061;-58
2021/12/18 10:38:38;;;;;;;4.18;3.78;;;;;;;;;;5045989;28;20056;-58
2021/12/18 10:41:22;;;;;;;5.75;5.15;;;;;;;;;;5030009;28;20087;-58
2021/12/18 10:44:02;;;;;;;4.50;4.10;;;;;;;;;;5029479;28;20028;-58
2021/12/18 10:46:29;;;;;;;4.40;3.60;;;;;;;;;;5012134;28;20041;-58
2021/12/18 10:48:55;;;;;;;35.60;32.45;;;;;;;;;;5028704;28;20139;-58
2021/12/18 10:51:21;;;;;;;6.43;5.60;;;;;;;;;;5028735;28;20064;-58
2021/12/18 10:53:46;;;;;;;7.20;6.55;;;;;;;;;;5023146;28;20095;-58
2021/12/18 10:56:11;;;;;;;5.33;4.60;;;;;;;;;;5046296;28;20025;-58
2021/12/18 10:58:37;;;;;;;4.72;4.30;;;;;;;;;;5050317;28;20047;-58
2021/12/18 11:01:06;;;;;;;3.63;3.33;;;;;;;;;;5028495;28;20041;-58
2021/12/18 11:03:41;;;;;;;4.25;3.85;;;;;;;;;;5023670;28;20026;-58
2021/12/18 11:06:08;;;;;;;5.28;4.30;;;;;;;;;;5034120;28;20046;-58
2021/12/18 11:08:36;;;;;;;5.53;4.93;;;;;;;;;;5044756;28;20055;-58
2021/12/18 11:13:50;;;;;;;5.60;5.03;;;;;;;;;;5030445;28;20048;-58
2021/12/18 11:16:18;;;;;;;6.65;3.72;;;;;;;;;;5028759;28;20484;-58
2021/12/18 11:18:47;;;;;;;6.80;3.88;;;;;;;;;;5029884;28;20099;-58
2021/12/18 11:21:12;;;;;;;5.97;3.95;;;;;;;;;;5029169;28;20064;-58
2021/12/18 11:23:39;;;;;;;5.95;3.97;;;;;;;;;;5030769;28;20469;-58
2021/12/18 11:26:06;;;;;;;9.55;6.10;;;;;;;;;;5028079;28;20041;-58
2021/12/18 11:28:31;;;;;;;9.18;5.32;;;;;;;;;;5048015;28;20361;-58
2021/12/18 11:30:57;;;;;;;5.72;5.32;;;;;;;;;;5046648;28;20029;-58
2021/12/18 11:33:22;;;;;;;6.53;4.45;;;;;;;;;;5030306;28;20017;-58
2021/12/18 11:35:48;;;;;;;9.60;6.27;;;;;;;;;;5028345;28;20029;-58
2021/12/18 11:38:15;;;;;;;6.32;4.90;;;;;;;;;;5036868;28;20101;-58
2021/12/18 11:40:40;;;;;;;15.90;6.82;;;;;;;;;;5027518;28;20037;-57
2021/12/18 11:43:06;;;;;;;8.88;6.25;;;;;;;;;;5030018;28;20490;-58
2021/12/18 11:45:32;;;;;;;11.68;7.47;;;;;;;;;;5040638;28;20044;-58
2021/12/18 11:47:59;;;;;;;8.27;5.85;;;;;;;;;;5049097;28;20025;-58
2021/12/18 11:50:37;;;;;;;11.98;6.72;;;;;;;;;;5047367;28;20453;-58
2021/12/18 11:53:02;;;;;;;;;;;;;;;;;;5049752;28;20024;-58
2021/12/18 11:55:33;;;;;;;13.50;8.57;;;;;;;;;;5046307;28;19909;-58
2021/12/18 11:58:00;;;;;;;10.90;7.53;;;;;;;;;;5032787;28;20045;-58
2021/12/18 12:00:39;;;;;;;9.27;5.85;;;;;;;;;;5040860;28;20120;-58
2021/12/18 12:03:07;;;;;;;10.10;5.05;;;;;;;;;;5052596;28;20021;-58
2021/12/18 12:05:32;;;;;;;11.15;7.00;;;;;;;;;;5033819;28;20038;-58
2021/12/18 12:08:16;;;;;;;10.00;6.60;;;;;;;;;;5033212;28;20033;-58
2021/12/18 12:11:02;;;;;;;6.32;5.72;;;;;;;;;;5039719;28;20113;-58
2021/12/18 12:13:46;;;;;;;7.28;5.53;;;;;;;;;;5032379;28;20457;-58
2021/12/18 12:16:11;;;;;;;7.13;4.93;;;;;;;;;;5031245;28;20033;-58
2021/12/18 12:18:55;;;;;;;4.60;4.20;;;;;;;;;;5039732;28;20526;-58
2021/12/18 12:21:38;;;;;;;6.15;4.82;;;;;;;;;;5045650;28;20448;-58
2021/12/18 12:24:04;;;;;;;7.38;5.45;;;;;;;;;;5035016;28;20365;-57
2021/12/18 12:26:29;;;;;;;5.50;4.60;;;;;;;;;;5044194;28;20027;-58
2021/12/18 12:28:54;;;;;;;4.40;4.00;;;;;;;;;;5046836;28;20096;-58
2021/12/18 12:31:19;;;;;;;7.07;6.03;;;;;;;;;;5050120;28;20460;-58
2021/12/18 12:33:49;;;;;;;13.48;7.88;;;;;;;;;;5043942;28;20112;-58
2021/12/18 12:36:15;;;;;;;11.02;6.68;;;;;;;;;;5044035;28;20040;-58
2021/12/18 12:38:55;;;;;;;3.75;3.45;;;;;;;;;;5043594;28;20032;-58
2021/12/18 12:41:24;;;;;;;4.55;4.03;;;;;;;;;;5029427;28;20072;-58
2021/12/18 12:43:49;;;;;;;4.03;3.70;;;;;;;;;;5034559;28;20033;-58
2021/12/18 12:46:15;;;;;;;9.77;4.82;;;;;;;;;;5035691;28;20103;-58
2021/12/18 12:49:01;;;;;;;8.07;3.70;;;;;;;;;;5040292;28;20021;-58
2021/12/18 12:51:47;;;;;;;3.63;3.28;;;;;;;;;;5048184;28;20047;-58
2021/12/18 12:54:33;;;;;;;3.95;3.53;;;;;;;;;;5041502;28;20103;-57
2021/12/18 12:57:16;;;;;;;3.92;3.63;;;;;;;;;;5048712;28;20052;-58
2021/12/18 12:59:42;;;;;;;4.95;4.22;;;;;;;;;;5043295;28;20041;-58
2021/12/18 13:02:08;;;;;;;5.13;4.15;;;;;;;;;;5047602;28;20024;-58
2021/12/18 13:04:33;;;;;;;4.32;3.90;;;;;;;;;;5046558;28;20120;-58
2021/12/18 13:07:08;;;;;;;5.38;4.93;;;;;;;;;;5043794;28;20033;-58
2021/12/18 13:09:34;;;;;;;5.25;4.63;;;;;;;;;;5041296;28;20524;-58
2021/12/18 13:12:04;;;;;;;4.47;4.07;;;;;;;;;;5034541;28;20021;-58
2021/12/18 13:14:39;;;;;;;5.07;4.57;;;;;;;;;;5018058;28;20033;-58
2021/12/18 13:17:24;;;;;;;4.40;4.10;;;;;;;;;;5042216;28;20461;-58
2021/12/18 13:19:56;;;;;;;3.90;3.58;;;;;;;;;;5026760;28;20117;-58
2021/12/18 13:22:25;;;;;;;5.80;4.35;;;;;;;;;;5032514;28;20503;-58
2021/12/18 13:25:00;;;;;;;5.05;4.00;;;;;;;;;;5034525;28;20043;-58
2021/12/18 13:27:25;;;;;;;4.00;3.70;;;;;;;;;;5047534;28;20072;-58
2021/12/18 13:30:08;;;;;;;5.65;5.05;;;;;;;;;;5010329;28;20092;-58
2021/12/18 13:32:33;;;;;;;6.22;4.22;;;;;;;;;;5012889;28;20045;-58
2021/12/18 13:34:58;;;;;;;9.70;4.53;;;;;;;;;;5010518;28;20543;-58
2021/12/18 13:37:24;;;;;;;4.70;3.67;;;;;;;;;;5013699;28;20013;-58
2021/12/18 13:39:49;;;;;;;4.45;4.05;;;;;;;;;;5026881;28;20057;-58
2021/12/18 13:42:19;;;;;;;4.40;4.00;;;;;;;;;;5030667;28;20060;-58
2021/12/18 13:44:49;;;;;;;6.80;3.78;;;;;;;;;;5023603;28;20040;-58
2021/12/18 13:47:14;;;;;;;4.97;4.32;;;;;;;;;;5011329;28;20026;-58
2021/12/18 13:49:39;;;;;;;6.50;5.85;;;;;;;;;;5016210;28;20040;-58
2021/12/18 13:52:05;;;;;;;4.77;4.20;;;;;;;;;;5017229;28;20811;-58
2021/12/18 13:54:33;;;;;;;4.72;4.22;;;;;;;;;;5009919;28;20045;-58
2021/12/18 13:56:58;;;;;;;6.72;5.25;;;;;;;;;;5020966;28;20132;-57
2021/12/18 13:59:23;;;;;;;5.05;4.55;;;;;;;;;;5028637;28;20180;-58
2021/12/18 14:01:49;;;;;;;6.33;5.40;;;;;;;;;;5030535;28;20029;-57
2021/12/18 14:04:16;;;;;;;7.60;4.95;;;;;;;;;;5028854;28;20507;-58
2021/12/18 14:06:42;;;;;;;6.55;5.55;;;;;;;;;;5019560;28;20021;-57
2021/12/18 14:09:13;;;;;;;6.07;5.03;;;;;;;;;;5009837;28;20014;-58
2021/12/18 14:11:42;;;;;;;9.48;6.85;;;;;;;;;;5025566;28;20039;-57
2021/12/18 14:14:09;;;;;;;9.05;6.35;;;;;;;;;;5010854;28;20014;-58
2021/12/18 14:16:35;;;;;;;7.88;7.13;;;;;;;;;;5033388;28;20372;-58
2021/12/18 14:19:01;;;;;;;14.13;12.77;;;;;;;;;;5030674;28;20026;-57
2021/12/18 14:21:43;;;;;;;8.45;6.35;;;;;;;;;;5048022;28;20021;-58
2021/12/18 14:24:10;;;;;;;14.63;8.23;;;;;;;;;;5034242;28;20426;-58
2021/12/18 14:26:35;;;;;;;9.40;8.10;;;;;;;;;;5049867;28;20518;-58
2021/12/18 14:29:27;;;;;;;36.13;32.22;;;;;;;;;;5043929;28;20036;-57
2021/12/18 14:31:53;;;;;;;10.25;9.23;;;;;;;;;;5028351;28;20048;-57
2021/12/18 14:34:24;;;;;;;11.68;8.52;;;;;;;;;;5029086;28;20546;-58
2021/12/18 14:36:56;;;;;;;7.22;6.40;;;;;;;;;;5040011;28;20100;-58
2021/12/18 14:39:21;;;;;;;8.65;7.03;;;;;;;;;;5029284;28;20026;-58
2021/12/18 14:41:53;;;;;;;7.57;6.78;;;;;;;;;;5030560;28;20027;-58
2021/12/18 14:44:18;;;;;;;11.43;8.13;;;;;;;;;;5037679;28;20033;-57
2021/12/18 14:46:44;;;;;;;10.68;7.32;;;;;;;;;;5049647;28;20099;-57
2021/12/18 14:49:10;;;;;;;8.57;7.73;;;;;;;;;;5041559;28;20495;-57
2021/12/18 14:51:37;;;;;;;13.52;8.43;;;;;;;;;;5048586;28;20031;-58
2021/12/18 14:54:03;;;;;;;8.80;7.93;;;;;;;;;;5048926;28;20433;-57
2021/12/18 14:56:28;;;;;;;13.50;7.63;;;;;;;;;;5041150;28;20072;-57
2021/12/18 14:58:53;;;;;;;10.87;8.57;;;;;;;;;;5033266;28;20092;-58
2021/12/18 15:01:23;;;;;;;12.13;9.37;;;;;;;;;;5048060;28;20041;-58
2021/12/18 15:03:48;;;;;;;10.95;8.00;;;;;;;;;;5050052;28;20455;-58
2021/12/18 15:06:20;;;;;;;13.70;9.50;;;;;;;;;;5047702;28;20134;-58
2021/12/18 15:08:59;;;;;;;13.48;10.32;;;;;;;;;;5043215;28;20112;-58
2021/12/18 15:11:27;;;;;;;17.50;11.82;;;;;;;;;;5037069;28;20115;-57
2021/12/18 15:14:08;;;;;;;17.73;13.75;;;;;;;;;;5047229;28;20467;-58
2021/12/18 15:16:34;;;;;;;17.58;13.90;;;;;;;;;;5019370;28;20041;-58
2021/12/18 15:19:00;;;;;;;19.33;13.93;;;;;;;;;;5022389;28;20030;-58
2021/12/18 15:21:26;;;;;;;16.85;11.48;;;;;;;;;;5014635;28;20468;-58